sensor_id;sensor_type;location;lat;lon;timestamp;pressure;altitude;pressure_sealevel;temperature;humidity
23361;BME280;11852;50.082;18.554;2023-04-09T00:00:01;99225.0;;;6.88;85.07
23361;BME280;11852;50.082;18.554;2023-04-09T00:01:09;99224.5;;;6.83;85.21
23361;BME280;11852;50.082;18.554;2023-04-09T00:02:15;99230.0;;;6.78;85.29
23361;BME280;11852;50.082;18.554;2023-04-09T00:03:22;99229.0;;;6.84;85.08
23361;BME280;11852;50.082;18.554;2023-04-09T00:04:29;99227.0;;;6.81;85.12
23361;BME280;11852;50.082;18.554;2023-04-09T00:05:39;99224.5;;;6.8;85.18
23361;BME280;11852;50.082;18.554;2023-04-09T00:06:46;99229.0;;;6.74;85.47
23361;BME280;11852;50.082;18.554;2023-04-09T00:07:53;99228.5;;;6.75;85.34
23361;BME280;11852;50.082;18.554;2023-04-09T00:09:00;99231.5;;;6.82;85.13
23361;BME280;11852;50.082;18.554;2023-04-09T00:10:07;99229.0;;;6.84;85.15
23361;BME280;11852;50.082;18.554;2023-04-09T00:11:14;99231.0;;;6.75;85.42
23361;BME280;11852;50.082;18.554;2023-04-09T00:12:21;99231.0;;;6.76;85.28
23361;BME280;11852;50.082;18.554;2023-04-09T00:13:27;99230.01;;;6.81;85.07
23361;BME280;11852;50.082;18.554;2023-04-09T00:14:34;99229.0;;;6.85;84.97
23361;BME280;11852;50.082;18.554;2023-04-09T00:15:41;99230.51;;;6.89;84.96
23361;BME280;11852;50.082;18.554;2023-04-09T00:16:48;99229.0;;;6.9;84.85
23361;BME280;11852;50.082;18.554;2023-04-09T00:17:55;99229.51;;;6.9;84.88
23361;BME280;11852;50.082;18.554;2023-04-09T00:19:01;99227.0;;;6.9;84.9
23361;BME280;11852;50.082;18.554;2023-04-09T00:20:08;99227.0;;;6.93;84.79
23361;BME280;11852;50.082;18.554;2023-04-09T00:21:15;99227.0;;;6.95;84.78
23361;BME280;11852;50.082;18.554;2023-04-09T00:22:22;99227.5;;;6.95;84.81
23361;BME280;11852;50.082;18.554;2023-04-09T00:23:29;99226.0;;;6.94;84.81
23361;BME280;11852;50.082;18.554;2023-04-09T00:24:36;99226.0;;;6.94;84.77
23361;BME280;11852;50.082;18.554;2023-04-09T00:25:43;99227.5;;;6.97;84.72
23361;BME280;11852;50.082;18.554;2023-04-09T00:26:50;99227.5;;;6.97;84.71
23361;BME280;11852;50.082;18.554;2023-04-09T00:27:56;99226.0;;;6.95;84.64
23361;BME280;11852;50.082;18.554;2023-04-09T00:29:03;99225.0;;;6.91;84.71
23361;BME280;11852;50.082;18.554;2023-04-09T00:30:10;99225.0;;;6.89;84.63
23361;BME280;11852;50.082;18.554;2023-04-09T00:31:17;99224.5;;;6.93;84.54
23361;BME280;11852;50.082;18.554;2023-04-09T00:32:24;99226.0;;;6.94;84.51
23361;BME280;11852;50.082;18.554;2023-04-09T00:33:31;99225.5;;;6.97;84.53
23361;BME280;11852;50.082;18.554;2023-04-09T00:34:38;99224.5;;;6.97;84.54
23361;BME280;11852;50.082;18.554;2023-04-09T00:35:45;99222.0;;;6.97;84.53
23361;BME280;11852;50.082;18.554;2023-04-09T00:36:52;99220.49;;;6.95;84.57
23361;BME280;11852;50.082;18.554;2023-04-09T00:37:59;99221.5;;;6.95;84.57
23361;BME280;11852;50.082;18.554;2023-04-09T00:39:05;99222.0;;;6.99;84.53
23361;BME280;11852;50.082;18.554;2023-04-09T00:40:12;99218.99;;;6.99;84.51
23361;BME280;11852;50.082;18.554;2023-04-09T00:41:19;99216.0;;;7.0;84.5
23361;BME280;11852;50.082;18.554;2023-04-09T00:42:26;99213.0;;;6.99;84.49
23361;BME280;11852;50.082;18.554;2023-04-09T00:43:33;99214.5;;;6.99;84.51
23361;BME280;11852;50.082;18.554;2023-04-09T00:44:39;99213.0;;;6.98;84.51
23361;BME280;11852;50.082;18.554;2023-04-09T00:45:46;99212.0;;;6.97;84.48
23361;BME280;11852;50.082;18.554;2023-04-09T00:46:53;99211.0;;;6.95;84.49
23361;BME280;11852;50.082;18.554;2023-04-09T00:48:00;99211.5;;;6.94;84.53
23361;BME280;11852;50.082;18.554;2023-04-09T00:49:06;99209.5;;;6.94;84.58
23361;BME280;11852;50.082;18.554;2023-04-09T00:50:13;99213.0;;;6.93;84.61
23361;BME280;11852;50.082;18.554;2023-04-09T00:51:20;99214.0;;;6.93;84.59
23361;BME280;11852;50.082;18.554;2023-04-09T00:52:27;99212.0;;;6.94;84.54
23361;BME280;11852;50.082;18.554;2023-04-09T00:53:33;99213.5;;;6.92;84.63
23361;BME280;11852;50.082;18.554;2023-04-09T00:54:40;99210.5;;;6.93;84.63
23361;BME280;11852;50.082;18.554;2023-04-09T00:55:47;99213.0;;;6.93;84.65
23361;BME280;11852;50.082;18.554;2023-04-09T00:56:54;99212.0;;;6.92;84.58
23361;BME280;11852;50.082;18.554;2023-04-09T00:58:01;99213.0;;;6.92;84.65
23361;BME280;11852;50.082;18.554;2023-04-09T00:59:07;99212.5;;;6.9;84.67
23361;BME280;11852;50.082;18.554;2023-04-09T01:00:14;99213.0;;;6.9;84.65
23361;BME280;11852;50.082;18.554;2023-04-09T01:01:21;99211.0;;;6.89;84.63
23361;BME280;11852;50.082;18.554;2023-04-09T01:02:28;99213.0;;;6.88;84.71
23361;BME280;11852;50.082;18.554;2023-04-09T01:03:35;99211.0;;;6.86;84.74
23361;BME280;11852;50.082;18.554;2023-04-09T01:04:41;99213.0;;;6.85;84.73
23361;BME280;11852;50.082;18.554;2023-04-09T01:05:59;99214.0;;;6.85;84.7
23361;BME280;11852;50.082;18.554;2023-04-09T01:09:29;99218.5;;;6.82;84.7
23361;BME280;11852;50.082;18.554;2023-04-09T01:10:42;99220.49;;;6.8;84.72
23361;BME280;11852;50.082;18.554;2023-04-09T01:11:57;99221.5;;;6.79;84.75
23361;BME280;11852;50.082;18.554;2023-04-09T01:13:06;99225.5;;;6.77;84.71
23361;BME280;11852;50.082;18.554;2023-04-09T01:14:19;99225.5;;;6.77;84.69
23361;BME280;11852;50.082;18.554;2023-04-09T01:15:24;99226.5;;;6.75;84.74
23361;BME280;11852;50.082;18.554;2023-04-09T01:16:28;99226.0;;;6.77;84.7
23361;BME280;11852;50.082;18.554;2023-04-09T01:17:45;99226.0;;;6.77;84.71
23361;BME280;11852;50.082;18.554;2023-04-09T01:18:51;99227.0;;;6.78;84.71
23361;BME280;11852;50.082;18.554;2023-04-09T01:20:00;99230.01;;;6.77;84.76
23361;BME280;11852;50.082;18.554;2023-04-09T01:21:09;99231.01;;;6.8;84.65
23361;BME280;11852;50.082;18.554;2023-04-09T01:22:23;99232.0;;;6.78;84.65
23361;BME280;11852;50.082;18.554;2023-04-09T01:24:41;99235.0;;;6.74;84.63
23361;BME280;11852;50.082;18.554;2023-04-09T01:26:00;99239.5;;;6.73;84.65
23361;BME280;11852;50.082;18.554;2023-04-09T01:27:04;99240.0;;;6.72;84.71
23361;BME280;11852;50.082;18.554;2023-04-09T01:29:23;99237.0;;;6.66;84.76
23361;BME280;11852;50.082;18.554;2023-04-09T01:30:29;99238.5;;;6.64;84.82
23361;BME280;11852;50.082;18.554;2023-04-09T01:31:37;99239.0;;;6.62;84.91
23361;BME280;11852;50.082;18.554;2023-04-09T01:32:43;99239.5;;;6.62;84.89
23361;BME280;11852;50.082;18.554;2023-04-09T01:33:50;99240.0;;;6.59;84.96
23361;BME280;11852;50.082;18.554;2023-04-09T01:34:57;99239.5;;;6.61;84.96
23361;BME280;11852;50.082;18.554;2023-04-09T01:36:04;99242.01;;;6.6;85.01
23361;BME280;11852;50.082;18.554;2023-04-09T01:37:10;99239.0;;;6.61;85.0
23361;BME280;11852;50.082;18.554;2023-04-09T01:38:18;99238.5;;;6.63;84.96
23361;BME280;11852;50.082;18.554;2023-04-09T01:39:25;99240.0;;;6.64;84.96
23361;BME280;11852;50.082;18.554;2023-04-09T01:40:31;99236.5;;;6.64;84.98
23361;BME280;11852;50.082;18.554;2023-04-09T01:41:38;99238.0;;;6.64;84.94
23361;BME280;11852;50.082;18.554;2023-04-09T01:42:44;99239.0;;;6.64;84.96
23361;BME280;11852;50.082;18.554;2023-04-09T01:43:51;99235.5;;;6.61;84.98
23361;BME280;11852;50.082;18.554;2023-04-09T01:44:58;99240.5;;;6.57;84.88
23361;BME280;11852;50.082;18.554;2023-04-09T01:46:05;99241.5;;;6.56;84.89
23361;BME280;11852;50.082;18.554;2023-04-09T01:47:11;99241.5;;;6.54;84.92
23361;BME280;11852;50.082;18.554;2023-04-09T01:48:18;99240.5;;;6.52;84.97
23361;BME280;11852;50.082;18.554;2023-04-09T01:49:25;99244.5;;;6.52;84.94
23361;BME280;11852;50.082;18.554;2023-04-09T01:50:32;99244.5;;;6.51;84.93
23361;BME280;11852;50.082;18.554;2023-04-09T01:51:39;99239.5;;;6.51;84.92
23361;BME280;11852;50.082;18.554;2023-04-09T01:52:46;99241.0;;;6.49;84.95
23361;BME280;11852;50.082;18.554;2023-04-09T01:53:52;99240.0;;;6.49;84.96
23361;BME280;11852;50.082;18.554;2023-04-09T01:54:59;99240.5;;;6.48;85.01
23361;BME280;11852;50.082;18.554;2023-04-09T01:56:06;99242.01;;;6.45;84.93
23361;BME280;11852;50.082;18.554;2023-04-09T01:57:13;99240.5;;;6.44;84.98
23361;BME280;11852;50.082;18.554;2023-04-09T01:58:20;99240.5;;;6.43;84.97
23361;BME280;11852;50.082;18.554;2023-04-09T01:59:27;99238.5;;;6.41;85.04
23361;BME280;11852;50.082;18.554;2023-04-09T02:01:46;99239.5;;;6.42;85.08
23361;BME280;11852;50.082;18.554;2023-04-09T02:02:57;99238.5;;;6.43;85.07
23361;BME280;11852;50.082;18.554;2023-04-09T02:04:03;99239.0;;;6.43;85.08
23361;BME280;11852;50.082;18.554;2023-04-09T02:05:09;99239.0;;;6.39;85.18
23361;BME280;11852;50.082;18.554;2023-04-09T02:08:45;99243.5;;;6.39;85.16
23361;BME280;11852;50.082;18.554;2023-04-09T02:09:52;99241.0;;;6.38;85.22
23361;BME280;11852;50.082;18.554;2023-04-09T02:10:59;99241.0;;;6.36;85.24
23361;BME280;11852;50.082;18.554;2023-04-09T02:12:11;99240.0;;;6.36;85.27
23361;BME280;11852;50.082;18.554;2023-04-09T02:13:12;99240.5;;;6.37;85.25
23361;BME280;11852;50.082;18.554;2023-04-09T02:14:19;99243.01;;;6.39;85.19
23361;BME280;11852;50.082;18.554;2023-04-09T02:15:26;99241.5;;;6.39;85.13
23361;BME280;11852;50.082;18.554;2023-04-09T02:16:33;99239.0;;;6.39;85.1
23361;BME280;11852;50.082;18.554;2023-04-09T02:17:40;99241.5;;;6.4;85.17
23361;BME280;11852;50.082;18.554;2023-04-09T02:18:46;99240.5;;;6.41;85.19
23361;BME280;11852;50.082;18.554;2023-04-09T02:19:53;99238.5;;;6.39;85.25
23361;BME280;11852;50.082;18.554;2023-04-09T02:21:00;99239.0;;;6.4;85.23
23361;BME280;11852;50.082;18.554;2023-04-09T02:22:07;99240.5;;;6.41;85.25
23361;BME280;11852;50.082;18.554;2023-04-09T02:23:16;99241.0;;;6.42;85.21
23361;BME280;11852;50.082;18.554;2023-04-09T02:24:23;99240.5;;;6.45;85.18
23361;BME280;11852;50.082;18.554;2023-04-09T02:25:30;99242.5;;;6.46;85.21
23361;BME280;11852;50.082;18.554;2023-04-09T02:26:37;99241.5;;;6.47;85.17
23361;BME280;11852;50.082;18.554;2023-04-09T02:27:44;99240.0;;;6.48;85.15
23361;BME280;11852;50.082;18.554;2023-04-09T02:28:51;99243.0;;;6.48;85.09
23361;BME280;11852;50.082;18.554;2023-04-09T02:29:57;99238.0;;;6.47;85.08
23361;BME280;11852;50.082;18.554;2023-04-09T02:31:04;99238.0;;;6.48;85.08
23361;BME280;11852;50.082;18.554;2023-04-09T02:32:11;99240.0;;;6.47;85.03
23361;BME280;11852;50.082;18.554;2023-04-09T02:33:18;99239.5;;;6.44;85.13
23361;BME280;11852;50.082;18.554;2023-04-09T02:34:25;99241.0;;;6.45;85.13
23361;BME280;11852;50.082;18.554;2023-04-09T02:35:32;99240.0;;;6.43;85.17
23361;BME280;11852;50.082;18.554;2023-04-09T02:36:38;99240.0;;;6.43;85.1
23361;BME280;11852;50.082;18.554;2023-04-09T02:37:45;99236.5;;;6.44;85.12
23361;BME280;11852;50.082;18.554;2023-04-09T02:38:52;99236.0;;;6.43;85.2
23361;BME280;11852;50.082;18.554;2023-04-09T02:39:59;99237.5;;;6.41;85.22
23361;BME280;11852;50.082;18.554;2023-04-09T02:41:06;99240.0;;;6.41;85.24
23361;BME280;11852;50.082;18.554;2023-04-09T02:42:12;99241.5;;;6.44;85.18
23361;BME280;11852;50.082;18.554;2023-04-09T02:43:19;99239.5;;;6.43;85.23
23361;BME280;11852;50.082;18.554;2023-04-09T02:44:26;99238.0;;;6.43;85.21
23361;BME280;11852;50.082;18.554;2023-04-09T02:45:33;99239.0;;;6.41;85.27
23361;BME280;11852;50.082;18.554;2023-04-09T02:46:40;99236.5;;;6.4;85.28
23361;BME280;11852;50.082;18.554;2023-04-09T02:47:46;99234.5;;;6.41;85.29
23361;BME280;11852;50.082;18.554;2023-04-09T02:48:53;99234.5;;;6.41;85.27
23361;BME280;11852;50.082;18.554;2023-04-09T02:50:00;99232.99;;;6.41;85.29
23361;BME280;11852;50.082;18.554;2023-04-09T02:51:07;99232.99;;;6.41;85.25
23361;BME280;11852;50.082;18.554;2023-04-09T02:52:14;99232.0;;;6.41;85.21
23361;BME280;11852;50.082;18.554;2023-04-09T02:53:20;99232.5;;;6.4;85.18
23361;BME280;11852;50.082;18.554;2023-04-09T02:54:27;99234.5;;;6.41;85.25
23361;BME280;11852;50.082;18.554;2023-04-09T02:55:34;99232.99;;;6.43;85.29
23361;BME280;11852;50.082;18.554;2023-04-09T02:56:41;99232.0;;;6.43;85.29
23361;BME280;11852;50.082;18.554;2023-04-09T02:57:48;99233.5;;;6.42;85.23
23361;BME280;11852;50.082;18.554;2023-04-09T02:58:55;99236.0;;;6.41;85.24
23361;BME280;11852;50.082;18.554;2023-04-09T03:00:02;99235.5;;;6.39;85.25
23361;BME280;11852;50.082;18.554;2023-04-09T03:01:08;99234.0;;;6.42;85.18
23361;BME280;11852;50.082;18.554;2023-04-09T03:02:15;99236.0;;;6.43;85.17
23361;BME280;11852;50.082;18.554;2023-04-09T03:03:22;99238.0;;;6.43;85.18
23361;BME280;11852;50.082;18.554;2023-04-09T03:04:29;99239.0;;;6.41;85.19
23361;BME280;11852;50.082;18.554;2023-04-09T03:05:36;99240.0;;;6.41;85.18
23361;BME280;11852;50.082;18.554;2023-04-09T03:06:43;99238.5;;;6.4;85.18
23361;BME280;11852;50.082;18.554;2023-04-09T03:07:49;99243.01;;;6.37;85.23
23361;BME280;11852;50.082;18.554;2023-04-09T03:08:56;99240.0;;;6.36;85.1
23361;BME280;11852;50.082;18.554;2023-04-09T03:10:03;99238.0;;;6.35;85.19
23361;BME280;11852;50.082;18.554;2023-04-09T03:11:10;99238.0;;;6.36;85.18
23361;BME280;11852;50.082;18.554;2023-04-09T03:12:17;99242.5;;;6.37;85.12
23361;BME280;11852;50.082;18.554;2023-04-09T03:13:24;99241.0;;;6.37;85.18
23361;BME280;11852;50.082;18.554;2023-04-09T03:14:30;99242.01;;;6.38;85.13
23361;BME280;11852;50.082;18.554;2023-04-09T03:15:37;99242.5;;;6.36;85.13
23361;BME280;11852;50.082;18.554;2023-04-09T03:16:44;99244.0;;;6.36;85.15
23361;BME280;11852;50.082;18.554;2023-04-09T03:17:51;99244.0;;;6.38;85.13
23361;BME280;11852;50.082;18.554;2023-04-09T03:18:58;99243.01;;;6.38;85.14
23361;BME280;11852;50.082;18.554;2023-04-09T03:20:05;99245.0;;;6.37;85.16
23361;BME280;11852;50.082;18.554;2023-04-09T03:21:12;99243.01;;;6.37;85.17
23361;BME280;11852;50.082;18.554;2023-04-09T03:22:19;99245.49;;;6.37;85.15
23361;BME280;11852;50.082;18.554;2023-04-09T03:23:25;99246.0;;;6.35;85.17
23361;BME280;11852;50.082;18.554;2023-04-09T03:24:32;99243.5;;;6.35;85.15
23361;BME280;11852;50.082;18.554;2023-04-09T03:25:39;99243.5;;;6.33;85.22
23361;BME280;11852;50.082;18.554;2023-04-09T03:26:46;99243.0;;;6.32;85.24
23361;BME280;11852;50.082;18.554;2023-04-09T03:27:53;99242.0;;;6.31;85.21
23361;BME280;11852;50.082;18.554;2023-04-09T03:28:59;99240.0;;;6.3;85.28
23361;BME280;11852;50.082;18.554;2023-04-09T03:30:07;99241.5;;;6.32;85.15
23361;BME280;11852;50.082;18.554;2023-04-09T03:31:13;99239.5;;;6.34;85.19
23361;BME280;11852;50.082;18.554;2023-04-09T03:32:20;99241.5;;;6.33;85.21
23361;BME280;11852;50.082;18.554;2023-04-09T03:33:27;99242.5;;;6.33;85.18
23361;BME280;11852;50.082;18.554;2023-04-09T03:34:34;99237.0;;;6.32;85.17
23361;BME280;11852;50.082;18.554;2023-04-09T03:35:41;99237.0;;;6.3;85.25
23361;BME280;11852;50.082;18.554;2023-04-09T03:36:47;99233.5;;;6.31;85.15
23361;BME280;11852;50.082;18.554;2023-04-09T03:37:54;99238.5;;;6.33;85.12
23361;BME280;11852;50.082;18.554;2023-04-09T03:39:01;99236.0;;;6.34;85.08
23361;BME280;11852;50.082;18.554;2023-04-09T03:40:08;99238.0;;;6.31;85.22
23361;BME280;11852;50.082;18.554;2023-04-09T03:41:15;99237.5;;;6.32;85.22
23361;BME280;11852;50.082;18.554;2023-04-09T03:42:22;99235.0;;;6.31;85.2
23361;BME280;11852;50.082;18.554;2023-04-09T03:43:28;99234.5;;;6.3;85.25
23361;BME280;11852;50.082;18.554;2023-04-09T03:44:35;99235.5;;;6.3;85.26
23361;BME280;11852;50.082;18.554;2023-04-09T03:45:42;99237.0;;;6.3;85.24
23361;BME280;11852;50.082;18.554;2023-04-09T03:46:49;99235.0;;;6.27;85.33
23361;BME280;11852;50.082;18.554;2023-04-09T03:47:56;99236.5;;;6.3;85.28
23361;BME280;11852;50.082;18.554;2023-04-09T03:49:03;99236.0;;;6.3;85.26
23361;BME280;11852;50.082;18.554;2023-04-09T03:50:09;99235.0;;;6.31;85.26
23361;BME280;11852;50.082;18.554;2023-04-09T03:51:16;99238.5;;;6.31;85.25
23361;BME280;11852;50.082;18.554;2023-04-09T03:52:23;99238.5;;;6.31;85.32
23361;BME280;11852;50.082;18.554;2023-04-09T03:53:30;99236.0;;;6.3;85.32
23361;BME280;11852;50.082;18.554;2023-04-09T03:54:37;99237.5;;;6.28;85.35
23361;BME280;11852;50.082;18.554;2023-04-09T03:55:43;99238.5;;;6.3;85.29
23361;BME280;11852;50.082;18.554;2023-04-09T03:56:50;99239.0;;;6.3;85.33
23361;BME280;11852;50.082;18.554;2023-04-09T03:57:57;99241.5;;;6.29;85.34
23361;BME280;11852;50.082;18.554;2023-04-09T03:59:04;99242.01;;;6.3;85.33
23361;BME280;11852;50.082;18.554;2023-04-09T04:00:11;99242.01;;;6.3;85.39
23361;BME280;11852;50.082;18.554;2023-04-09T04:01:18;99243.01;;;6.3;85.49
23361;BME280;11852;50.082;18.554;2023-04-09T04:02:24;99243.0;;;6.32;85.46
23361;BME280;11852;50.082;18.554;2023-04-09T04:03:31;99247.0;;;6.36;85.37
23361;BME280;11852;50.082;18.554;2023-04-09T04:04:38;99244.99;;;6.36;85.49
23361;BME280;11852;50.082;18.554;2023-04-09T04:05:45;99243.0;;;6.36;85.49
23361;BME280;11852;50.082;18.554;2023-04-09T04:06:51;99241.0;;;6.36;85.46
23361;BME280;11852;50.082;18.554;2023-04-09T04:07:58;99240.5;;;6.37;85.41
23361;BME280;11852;50.082;18.554;2023-04-09T04:09:05;99242.5;;;6.37;85.35
23361;BME280;11852;50.082;18.554;2023-04-09T04:10:12;99241.0;;;6.36;85.36
23361;BME280;11852;50.082;18.554;2023-04-09T04:11:19;99243.5;;;6.36;85.32
23361;BME280;11852;50.082;18.554;2023-04-09T04:12:25;99245.49;;;6.36;85.42
23361;BME280;11852;50.082;18.554;2023-04-09T04:13:32;99243.0;;;6.35;85.49
23361;BME280;11852;50.082;18.554;2023-04-09T04:14:39;99243.5;;;6.38;85.37
23361;BME280;11852;50.082;18.554;2023-04-09T04:15:46;99243.5;;;6.38;85.43
23361;BME280;11852;50.082;18.554;2023-04-09T04:16:53;99244.0;;;6.37;85.49
23361;BME280;11852;50.082;18.554;2023-04-09T04:18:00;99248.0;;;6.37;85.48
23361;BME280;11852;50.082;18.554;2023-04-09T04:19:07;99251.5;;;6.35;85.51
23361;BME280;11852;50.082;18.554;2023-04-09T04:20:13;99250.0;;;6.34;85.55
23361;BME280;11852;50.082;18.554;2023-04-09T04:21:20;99253.5;;;6.36;85.42
23361;BME280;11852;50.082;18.554;2023-04-09T04:22:27;99249.5;;;6.36;85.43
23361;BME280;11852;50.082;18.554;2023-04-09T04:23:34;99252.0;;;6.38;85.43
23361;BME280;11852;50.082;18.554;2023-04-09T04:24:41;99249.0;;;6.38;85.44
23361;BME280;11852;50.082;18.554;2023-04-09T04:25:47;99248.0;;;6.4;85.38
23361;BME280;11852;50.082;18.554;2023-04-09T04:26:54;99250.0;;;6.39;85.4
23361;BME280;11852;50.082;18.554;2023-04-09T04:28:01;99249.5;;;6.39;85.48
23361;BME280;11852;50.082;18.554;2023-04-09T04:29:08;99250.5;;;6.39;85.49
23361;BME280;11852;50.082;18.554;2023-04-09T04:30:15;99252.5;;;6.4;85.47
23361;BME280;11852;50.082;18.554;2023-04-09T04:31:22;99250.5;;;6.4;85.52
23361;BME280;11852;50.082;18.554;2023-04-09T04:32:29;99253.5;;;6.44;85.4
23361;BME280;11852;50.082;18.554;2023-04-09T04:33:36;99252.5;;;6.43;85.51
23361;BME280;11852;50.082;18.554;2023-04-09T04:34:42;99253.5;;;6.46;85.42
23361;BME280;11852;50.082;18.554;2023-04-09T04:35:49;99256.0;;;6.46;85.4
23361;BME280;11852;50.082;18.554;2023-04-09T04:36:56;99255.0;;;6.48;85.37
23361;BME280;11852;50.082;18.554;2023-04-09T04:38:02;99256.0;;;6.47;85.39
23361;BME280;11852;50.082;18.554;2023-04-09T04:39:09;99257.0;;;6.46;85.42
23361;BME280;11852;50.082;18.554;2023-04-09T04:40:16;99256.5;;;6.46;85.4
23361;BME280;11852;50.082;18.554;2023-04-09T04:41:24;99255.5;;;6.47;85.39
23361;BME280;11852;50.082;18.554;2023-04-09T04:42:31;99255.5;;;6.47;85.39
23361;BME280;11852;50.082;18.554;2023-04-09T04:43:38;99256.0;;;6.45;85.4
23361;BME280;11852;50.082;18.554;2023-04-09T04:44:44;99256.0;;;6.49;85.31
23361;BME280;11852;50.082;18.554;2023-04-09T04:45:51;99253.5;;;6.51;85.29
23361;BME280;11852;50.082;18.554;2023-04-09T04:46:58;99255.5;;;6.51;85.29
23361;BME280;11852;50.082;18.554;2023-04-09T04:48:05;99254.51;;;6.49;85.31
23361;BME280;11852;50.082;18.554;2023-04-09T04:49:12;99257.0;;;6.47;85.27
23361;BME280;11852;50.082;18.554;2023-04-09T04:50:18;99258.0;;;6.47;85.26
23361;BME280;11852;50.082;18.554;2023-04-09T04:51:25;99259.5;;;6.46;85.27
23361;BME280;11852;50.082;18.554;2023-04-09T04:52:32;99261.5;;;6.46;85.3
23361;BME280;11852;50.082;18.554;2023-04-09T04:53:39;99264.0;;;6.46;85.34
23361;BME280;11852;50.082;18.554;2023-04-09T04:54:46;99262.5;;;6.45;85.32
23361;BME280;11852;50.082;18.554;2023-04-09T04:55:52;99261.0;;;6.45;85.38
23361;BME280;11852;50.082;18.554;2023-04-09T04:56:59;99260.5;;;6.48;85.4
23361;BME280;11852;50.082;18.554;2023-04-09T04:58:06;99260.5;;;6.49;85.4
23361;BME280;11852;50.082;18.554;2023-04-09T04:59:13;99263.0;;;6.5;85.4
23361;BME280;11852;50.082;18.554;2023-04-09T05:00:20;99264.5;;;6.51;85.42
23361;BME280;11852;50.082;18.554;2023-04-09T05:01:27;99262.0;;;6.52;85.44
23361;BME280;11852;50.082;18.554;2023-04-09T05:02:33;99261.5;;;6.54;85.43
23361;BME280;11852;50.082;18.554;2023-04-09T05:03:40;99263.5;;;6.56;85.43
23361;BME280;11852;50.082;18.554;2023-04-09T05:04:47;99262.5;;;6.56;85.47
23361;BME280;11852;50.082;18.554;2023-04-09T05:05:54;99263.0;;;6.58;85.43
23361;BME280;11852;50.082;18.554;2023-04-09T05:07:00;99263.5;;;6.59;85.42
23361;BME280;11852;50.082;18.554;2023-04-09T05:08:07;99264.5;;;6.61;85.37
23361;BME280;11852;50.082;18.554;2023-04-09T05:09:14;99266.0;;;6.64;85.38
23361;BME280;11852;50.082;18.554;2023-04-09T05:10:21;99265.5;;;6.63;85.41
23361;BME280;11852;50.082;18.554;2023-04-09T05:11:28;99268.5;;;6.64;85.41
23361;BME280;11852;50.082;18.554;2023-04-09T05:12:35;99272.5;;;6.64;85.42
23361;BME280;11852;50.082;18.554;2023-04-09T05:13:41;99271.5;;;6.65;85.43
23361;BME280;11852;50.082;18.554;2023-04-09T05:14:48;99273.0;;;6.66;85.39
23361;BME280;11852;50.082;18.554;2023-04-09T05:15:55;99272.0;;;6.68;85.4
23361;BME280;11852;50.082;18.554;2023-04-09T05:17:02;99274.5;;;6.69;85.42
23361;BME280;11852;50.082;18.554;2023-04-09T05:18:09;99275.5;;;6.73;85.35
23361;BME280;11852;50.082;18.554;2023-04-09T05:19:15;99277.0;;;6.73;85.4
23361;BME280;11852;50.082;18.554;2023-04-09T05:20:22;99277.5;;;6.75;85.37
23361;BME280;11852;50.082;18.554;2023-04-09T05:21:29;99280.0;;;6.77;85.38
23361;BME280;11852;50.082;18.554;2023-04-09T05:22:36;99287.0;;;6.8;85.31
23361;BME280;11852;50.082;18.554;2023-04-09T05:23:43;99286.0;;;6.81;85.32
23361;BME280;11852;50.082;18.554;2023-04-09T05:24:50;99286.0;;;6.81;85.34
23361;BME280;11852;50.082;18.554;2023-04-09T05:25:56;99286.5;;;6.82;85.35
23361;BME280;11852;50.082;18.554;2023-04-09T05:27:03;99285.5;;;6.82;85.35
23361;BME280;11852;50.082;18.554;2023-04-09T05:28:10;99286.0;;;6.79;85.4
23361;BME280;11852;50.082;18.554;2023-04-09T05:29:17;99287.5;;;6.82;85.29
23361;BME280;11852;50.082;18.554;2023-04-09T05:30:23;99284.5;;;6.82;85.38
23361;BME280;11852;50.082;18.554;2023-04-09T05:31:30;99286.0;;;6.82;85.39
23361;BME280;11852;50.082;18.554;2023-04-09T05:32:37;99281.5;;;6.7;85.69
23361;BME280;11852;50.082;18.554;2023-04-09T05:33:44;99283.5;;;6.73;85.62
23361;BME280;11852;50.082;18.554;2023-04-09T05:34:51;99286.5;;;6.76;85.6
23361;BME280;11852;50.082;18.554;2023-04-09T05:35:57;99288.0;;;6.78;85.62
23361;BME280;11852;50.082;18.554;2023-04-09T05:37:04;99289.0;;;6.81;85.61
23361;BME280;11852;50.082;18.554;2023-04-09T05:38:11;99291.0;;;6.7;85.93
23361;BME280;11852;50.082;18.554;2023-04-09T05:39:18;99293.99;;;6.78;85.71
23361;BME280;11852;50.082;18.554;2023-04-09T05:40:25;99293.5;;;6.77;85.85
23361;BME280;11852;50.082;18.554;2023-04-09T05:41:31;99297.5;;;6.78;85.78
23361;BME280;11852;50.082;18.554;2023-04-09T05:42:38;99296.0;;;6.78;85.79
23361;BME280;11852;50.082;18.554;2023-04-09T05:43:45;99298.5;;;6.81;85.71
23361;BME280;11852;50.082;18.554;2023-04-09T05:44:52;99297.0;;;6.86;85.6
23361;BME280;11852;50.082;18.554;2023-04-09T05:45:59;99298.0;;;6.85;85.71
23361;BME280;11852;50.082;18.554;2023-04-09T05:47:06;99298.0;;;6.87;85.68
23361;BME280;11852;50.082;18.554;2023-04-09T05:48:13;99299.0;;;6.89;85.67
23361;BME280;11852;50.082;18.554;2023-04-09T05:49:20;99303.0;;;6.93;85.6
23361;BME280;11852;50.082;18.554;2023-04-09T05:50:26;99301.0;;;6.93;85.62
23361;BME280;11852;50.082;18.554;2023-04-09T05:51:33;99298.5;;;6.93;85.63
23361;BME280;11852;50.082;18.554;2023-04-09T05:52:40;99303.0;;;6.94;85.62
23361;BME280;11852;50.082;18.554;2023-04-09T05:53:47;99301.5;;;6.85;85.92
23361;BME280;11852;50.082;18.554;2023-04-09T05:54:54;99302.5;;;6.86;85.83
23361;BME280;11852;50.082;18.554;2023-04-09T05:56:01;99303.5;;;6.91;85.74
23361;BME280;11852;50.082;18.554;2023-04-09T05:57:07;99304.51;;;6.95;85.73
23361;BME280;11852;50.082;18.554;2023-04-09T05:58:14;99306.0;;;6.97;85.7
23361;BME280;11852;50.082;18.554;2023-04-09T05:59:21;99309.5;;;7.02;85.65
23361;BME280;11852;50.082;18.554;2023-04-09T06:00:28;99306.0;;;7.05;85.65
23361;BME280;11852;50.082;18.554;2023-04-09T06:01:35;99305.5;;;7.07;85.63
23361;BME280;11852;50.082;18.554;2023-04-09T06:02:42;99308.5;;;7.1;85.59
23361;BME280;11852;50.082;18.554;2023-04-09T06:03:48;99307.0;;;7.13;85.62
23361;BME280;11852;50.082;18.554;2023-04-09T06:04:55;99306.5;;;7.13;85.67
23361;BME280;11852;50.082;18.554;2023-04-09T06:06:02;99306.0;;;7.13;85.62
23361;BME280;11852;50.082;18.554;2023-04-09T06:07:09;99306.0;;;7.16;85.57
23361;BME280;11852;50.082;18.554;2023-04-09T06:08:16;99306.5;;;7.19;85.57